Time,TemperatureF,DewpointF,PressureIn,WindDirection,WindDirectionDegrees,WindSpeedMPH,WindSpeedGustMPH,Humidity,HourlyPrecipIn,Conditions,Clouds,dailyrainin,SolarRadiationWatts/m^2,SoftwareType,DateUTC
2013-03-04 00:21:00,53.0,46.0,-100.00,South,177,7.0,10.0,77,0.00,,,0.00,0.000000,,2013-03-04 07:21:00,
2013-03-04 00:32:00,53.0,46.0,-100.00,South,177,7.0,10.0,77,0.00,,,0.00,0.000000,,2013-03-04 07:32:00,
2013-03-04 00:42:00,53.0,46.0,-100.00,South,177,7.0,10.0,77,0.00,,,0.00,0.000000,,2013-03-04 07:42:00,
2013-03-04 00:51:00,53.0,46.0,-100.00,South,177,7.0,10.0,77,0.00,,,0.00,0.000000,,2013-03-04 07:51:00,
2013-03-04 01:11:00,52.0,46.0,-100.00,South,182,6.0,8.0,79,0.00,,,0.00,0.000000,,2013-03-04 08:11:00,
2013-03-04 01:22:00,52.0,46.0,-100.00,South,182,6.0,8.0,79,0.00,,,0.00,0.000000,,2013-03-04 08:22:00,
2013-03-04 01:32:00,52.0,46.0,-100.00,South,182,6.0,8.0,79,0.00,,,0.00,0.000000,,2013-03-04 08:32:00,
2013-03-04 01:42:00,52.0,46.0,-100.00,South,182,6.0,8.0,79,0.00,,,0.00,0.000000,,2013-03-04 08:42:00,
2013-03-04 01:52:00,52.0,46.0,-100.00,South,182,6.0,8.0,79,0.00,,,0.00,0.000000,,2013-03-04 08:52:00,
2013-03-04 02:11:00,53.0,47.0,-100.00,South,174,5.0,8.0,81,0.00,,,0.00,0.000000,,2013-03-04 09:11:00,
2013-03-04 02:21:00,53.0,47.0,-100.00,South,174,5.0,8.0,81,0.00,,,0.00,0.000000,,2013-03-04 09:21:00,
2013-03-04 02:32:00,53.0,47.0,-100.00,South,174,5.0,8.0,81,0.00,,,0.00,0.000000,,2013-03-04 09:32:00,
2013-03-04 02:42:00,53.0,47.0,-100.00,South,174,5.0,8.0,81,0.00,,,0.00,0.000000,,2013-03-04 09:42:00,
2013-03-04 02:51:00,53.0,47.0,-100.00,South,174,5.0,8.0,81,0.00,,,0.00,0.000000,,2013-03-04 09:51:00,
2013-03-04 03:11:00,53.0,49.0,-100.00,South,173,5.0,9.0,85,0.00,,,0.00,0.000000,,2013-03-04 10:11:00,
2013-03-04 03:22:00,53.0,49.0,-100.00,South,173,5.0,9.0,85,0.00,,,0.00,0.000000,,2013-03-04 10:22:00,
2013-03-04 03:32:00,53.0,49.0,-100.00,South,173,5.0,9.0,85,0.00,,,0.00,0.000000,,2013-03-04 10:32:00,
2013-03-04 03:42:00,53.0,49.0,-100.00,South,173,5.0,9.0,85,0.00,,,0.00,0.000000,,2013-03-04 10:42:00,
2013-03-04 03:52:00,53.0,49.0,-100.00,South,173,5.0,9.0,85,0.00,,,0.00,0.000000,,2013-03-04 10:52:00,
2013-03-04 04:22:00,55.0,50.0,-100.00,SSE,166,6.0,9.0,83,0.00,,,0.00,0.000000,,2013-03-04 11:22:00,
2013-03-04 04:32:00,55.0,50.0,-100.00,SSE,166,6.0,9.0,83,0.00,,,0.00,0.000000,,2013-03-04 11:32:00,
2013-03-04 04:42:00,55.0,50.0,-100.00,SSE,166,6.0,9.0,83,0.00,,,0.00,0.000000,,2013-03-04 11:42:00,
2013-03-04 04:52:00,55.0,50.0,-100.00,SSE,166,6.0,9.0,83,0.00,,,0.00,0.000000,,2013-03-04 11:52:00,
2013-03-04 05:22:00,55.0,50.0,-100.00,South,178,7.0,11.0,83,0.00,,,0.00,0.000000,,2013-03-04 12:22:00,
2013-03-04 05:32:00,55.0,50.0,-100.00,South,178,7.0,11.0,83,0.00,,,0.00,0.000000,,2013-03-04 12:32:00,
2013-03-04 05:42:00,55.0,50.0,-100.00,South,178,7.0,11.0,83,0.00,,,0.00,0.000000,,2013-03-04 12:42:00,
2013-03-04 05:52:00,55.0,50.0,-100.00,South,178,7.0,11.0,83,0.00,,,0.00,0.000000,,2013-03-04 12:52:00,
2013-03-04 06:11:00,57.0,52.0,-100.00,South,172,10.0,14.0,84,0.00,,,0.00,5.000000,,2013-03-04 13:11:00,
2013-03-04 06:21:00,57.0,52.0,-100.00,South,172,10.0,14.0,84,0.00,,,0.00,5.000000,,2013-03-04 13:21:00,
2013-03-04 06:32:00,57.0,52.0,-100.00,South,172,10.0,14.0,84,0.00,,,0.00,5.000000,,2013-03-04 13:32:00,
2013-03-04 06:42:00,57.0,52.0,-100.00,South,172,10.0,14.0,84,0.00,,,0.00,5.000000,,2013-03-04 13:42:00,
2013-03-04 06:51:00,57.0,52.0,-100.00,South,172,10.0,14.0,84,0.00,,,0.00,5.000000,,2013-03-04 13:51:00,
2013-03-04 07:11:00,62.0,55.0,-100.00,South,180,12.0,19.0,79,0.00,,,0.00,140.000000,,2013-03-04 14:11:00,
2013-03-04 07:22:00,62.0,55.0,-100.00,South,180,12.0,19.0,79,0.00,,,0.00,140.000000,,2013-03-04 14:22:00,
2013-03-04 07:32:00,62.0,55.0,-100.00,South,180,12.0,19.0,79,0.00,,,0.00,140.000000,,2013-03-04 14:32:00,
2013-03-04 07:42:00,62.0,55.0,-100.00,South,180,12.0,19.0,79,0.00,,,0.00,140.000000,,2013-03-04 14:42:00,
2013-03-04 07:52:00,62.0,55.0,-100.00,South,180,12.0,19.0,79,0.00,,,0.00,140.000000,,2013-03-04 14:52:00,
2013-03-04 08:11:00,66.0,57.0,-100.00,South,191,14.0,21.0,72,0.00,,,0.00,386.000000,,2013-03-04 15:11:00,
2013-03-04 08:22:00,66.0,57.0,-100.00,South,191,14.0,21.0,72,0.00,,,0.00,386.000000,,2013-03-04 15:22:00,
2013-03-04 08:32:00,66.0,57.0,-100.00,South,191,14.0,21.0,72,0.00,,,0.00,386.000000,,2013-03-04 15:32:00,
2013-03-04 08:42:00,66.0,57.0,-100.00,South,191,14.0,21.0,72,0.00,,,0.00,386.000000,,2013-03-04 15:42:00,
2013-03-04 08:51:00,66.0,57.0,-100.00,South,191,14.0,21.0,72,0.00,,,0.00,386.000000,,2013-03-04 15:51:00,
2013-03-04 09:21:00,68.0,56.0,-100.00,SSW,195,16.0,22.0,66,0.00,,,0.00,603.000000,,2013-03-04 16:21:00,
2013-03-04 09:32:00,68.0,56.0,-100.00,SSW,195,16.0,22.0,66,0.00,,,0.00,603.000000,,2013-03-04 16:32:00,
2013-03-04 09:42:00,68.0,56.0,-100.00,SSW,195,16.0,22.0,66,0.00,,,0.00,603.000000,,2013-03-04 16:42:00,
2013-03-04 09:52:00,68.0,56.0,-100.00,SSW,195,16.0,22.0,66,0.00,,,0.00,603.000000,,2013-03-04 16:52:00,
2013-03-04 10:22:00,70.0,57.0,-100.00,SSW,197,16.0,25.0,64,0.00,,,0.00,814.000000,,2013-03-04 17:22:00,
2013-03-04 10:32:00,70.0,57.0,-100.00,SSW,197,16.0,25.0,64,0.00,,,0.00,814.000000,,2013-03-04 17:32:00,
2013-03-04 10:42:00,70.0,57.0,-100.00,SSW,197,16.0,25.0,64,0.00,,,0.00,814.000000,,2013-03-04 17:42:00,
2013-03-04 10:52:00,70.0,57.0,-100.00,SSW,197,16.0,25.0,64,0.00,,,0.00,814.000000,,2013-03-04 17:52:00,
2013-03-04 11:22:00,71.0,57.0,-100.00,SSW,195,18.0,30.0,62,0.00,,,0.00,953.000000,,2013-03-04 18:22:00,
2013-03-04 11:32:00,71.0,57.0,-100.00,SSW,195,18.0,30.0,62,0.00,,,0.00,953.000000,,2013-03-04 18:32:00,
2013-03-04 11:42:00,71.0,57.0,-100.00,SSW,195,18.0,30.0,62,0.00,,,0.00,953.000000,,2013-03-04 18:42:00,
2013-03-04 11:52:00,71.0,57.0,-100.00,SSW,195,18.0,30.0,62,0.00,,,0.00,953.000000,,2013-03-04 18:52:00,
2013-03-04 12:11:00,72.0,58.0,-100.00,SSW,202,18.0,26.0,62,0.00,,,0.00,817.000000,,2013-03-04 19:11:00,
2013-03-04 12:22:00,72.0,58.0,-100.00,SSW,202,18.0,26.0,62,0.00,,,0.00,817.000000,,2013-03-04 19:22:00,
2013-03-04 12:32:00,72.0,58.0,-100.00,SSW,202,18.0,26.0,62,0.00,,,0.00,817.000000,,2013-03-04 19:32:00,
2013-03-04 12:42:00,72.0,58.0,-100.00,SSW,202,18.0,26.0,62,0.00,,,0.00,817.000000,,2013-03-04 19:42:00,
2013-03-04 12:51:00,72.0,58.0,-100.00,SSW,202,18.0,26.0,62,0.00,,,0.00,817.000000,,2013-03-04 19:51:00,
2013-03-04 13:22:00,72.0,59.0,-100.00,SSW,204,17.0,28.0,63,0.00,,,0.00,709.000000,,2013-03-04 20:22:00,
2013-03-04 13:32:00,72.0,59.0,-100.00,SSW,204,17.0,28.0,63,0.00,,,0.00,709.000000,,2013-03-04 20:32:00,
2013-03-04 13:42:00,72.0,59.0,-100.00,SSW,204,17.0,28.0,63,0.00,,,0.00,709.000000,,2013-03-04 20:42:00,
2013-03-04 13:52:00,72.0,59.0,-100.00,SSW,204,17.0,28.0,63,0.00,,,0.00,709.000000,,2013-03-04 20:52:00,
2013-03-04 14:22:00,73.0,59.0,-100.00,SSW,201,17.0,26.0,62,0.00,,,0.00,741.000000,,2013-03-04 21:22:00,
2013-03-04 14:32:00,73.0,59.0,-100.00,SSW,201,17.0,26.0,62,0.00,,,0.00,741.000000,,2013-03-04 21:32:00,
2013-03-04 14:42:00,73.0,59.0,-100.00,SSW,201,17.0,26.0,62,0.00,,,0.00,741.000000,,2013-03-04 21:42:00,
2013-03-04 14:52:00,73.0,59.0,-100.00,SSW,201,17.0,26.0,62,0.00,,,0.00,741.000000,,2013-03-04 21:52:00,
2013-03-04 15:12:00,71.0,59.0,-100.00,SSW,196,17.0,25.0,65,0.00,,,0.00,622.000000,,2013-03-04 22:12:00,
2013-03-04 15:22:00,71.0,59.0,-100.00,SSW,196,17.0,25.0,65,0.00,,,0.00,622.000000,,2013-03-04 22:22:00,
2013-03-04 15:32:00,71.0,59.0,-100.00,SSW,196,17.0,25.0,65,0.00,,,0.00,622.000000,,2013-03-04 22:32:00,
2013-03-04 15:42:00,71.0,59.0,-100.00,SSW,196,17.0,25.0,65,0.00,,,0.00,622.000000,,2013-03-04 22:42:00,
2013-03-04 15:52:00,71.0,59.0,-100.00,SSW,196,17.0,25.0,65,0.00,,,0.00,622.000000,,2013-03-04 22:52:00,
2013-03-04 16:22:00,70.0,59.0,-100.00,SSW,196,15.0,24.0,69,0.00,,,0.00,348.000000,,2013-03-04 23:22:00,
2013-03-04 16:32:00,70.0,59.0,-100.00,SSW,196,15.0,24.0,69,0.00,,,0.00,348.000000,,2013-03-04 23:32:00,
2013-03-04 16:42:00,70.0,59.0,-100.00,SSW,196,15.0,24.0,69,0.00,,,0.00,348.000000,,2013-03-04 23:42:00,
2013-03-04 16:52:00,70.0,59.0,-100.00,SSW,196,15.0,24.0,69,0.00,,,0.00,348.000000,,2013-03-04 23:52:00,
2013-03-04 17:21:00,66.0,59.0,-100.00,South,189,12.0,20.0,77,0.00,,,0.00,120.000000,,2013-03-05 00:21:00,
2013-03-04 17:32:00,66.0,59.0,-100.00,South,189,12.0,20.0,77,0.00,,,0.00,120.000000,,2013-03-05 00:32:00,
2013-03-04 17:42:00,66.0,59.0,-100.00,South,189,12.0,20.0,77,0.00,,,0.00,120.000000,,2013-03-05 00:42:00,
2013-03-04 17:51:00,66.0,59.0,-100.00,South,189,12.0,20.0,77,0.00,,,0.00,120.000000,,2013-03-05 00:51:00,
2013-03-04 18:12:00,65.0,59.0,-100.00,South,183,12.0,19.0,82,0.00,,,0.00,4.000000,,2013-03-05 01:12:00,
2013-03-04 18:22:00,65.0,59.0,-100.00,South,183,12.0,19.0,82,0.00,,,0.00,4.000000,,2013-03-05 01:22:00,
2013-03-04 18:32:00,65.0,59.0,-100.00,South,183,12.0,19.0,82,0.00,,,0.00,4.000000,,2013-03-05 01:32:00,
2013-03-04 18:41:00,65.0,59.0,-100.00,South,183,12.0,19.0,82,0.00,,,0.00,4.000000,,2013-03-05 01:41:00,
2013-03-04 18:51:00,65.0,59.0,-100.00,South,183,12.0,19.0,82,0.00,,,0.00,4.000000,,2013-03-05 01:51:00,
2013-03-04 19:22:00,65.0,60.0,-100.00,South,184,11.0,17.0,83,0.00,,,0.00,0.000000,,2013-03-05 02:22:00,
2013-03-04 19:32:00,65.0,60.0,-100.00,South,184,11.0,17.0,83,0.00,,,0.00,0.000000,,2013-03-05 02:32:00,
2013-03-04 19:42:00,65.0,60.0,-100.00,South,184,11.0,17.0,83,0.00,,,0.00,0.000000,,2013-03-05 02:42:00,
2013-03-04 19:52:00,65.0,60.0,-100.00,South,184,11.0,17.0,83,0.00,,,0.00,0.000000,,2013-03-05 02:52:00,
2013-03-04 20:12:00,65.0,60.0,-100.00,South,188,10.0,18.0,84,0.00,,,0.00,0.000000,,2013-03-05 03:12:00,
2013-03-04 20:22:00,65.0,60.0,-100.00,South,188,10.0,18.0,84,0.00,,,0.00,0.000000,,2013-03-05 03:22:00,
2013-03-04 20:32:00,65.0,60.0,-100.00,South,188,10.0,18.0,84,0.00,,,0.00,0.000000,,2013-03-05 03:32:00,
2013-03-04 20:42:00,65.0,60.0,-100.00,South,188,10.0,18.0,84,0.00,,,0.00,0.000000,,2013-03-05 03:42:00,
2013-03-04 20:52:00,65.0,60.0,-100.00,South,188,10.0,18.0,84,0.00,,,0.00,0.000000,,2013-03-05 03:52:00,
2013-03-04 21:12:00,65.0,60.0,-100.00,SSW,192,8.0,14.0,85,0.00,,,0.00,0.000000,,2013-03-05 04:12:00,
2013-03-04 21:22:00,65.0,60.0,-100.00,SSW,192,8.0,14.0,85,0.00,,,0.00,0.000000,,2013-03-05 04:22:00,
2013-03-04 21:32:00,65.0,60.0,-100.00,SSW,192,8.0,14.0,85,0.00,,,0.00,0.000000,,2013-03-05 04:32:00,
2013-03-04 21:42:00,65.0,60.0,-100.00,SSW,192,8.0,14.0,85,0.00,,,0.00,0.000000,,2013-03-05 04:42:00,
2013-03-04 21:52:00,65.0,60.0,-100.00,SSW,192,8.0,14.0,85,0.00,,,0.00,0.000000,,2013-03-05 04:52:00,
2013-03-04 22:12:00,64.0,60.0,-100.00,South,191,5.0,12.0,86,0.00,,,0.00,0.000000,,2013-03-05 05:12:00,
2013-03-04 22:22:00,64.0,60.0,-100.00,South,191,5.0,12.0,86,0.00,,,0.00,0.000000,,2013-03-05 05:22:00,
2013-03-04 22:32:00,64.0,60.0,-100.00,South,191,5.0,12.0,86,0.00,,,0.00,0.000000,,2013-03-05 05:32:00,
2013-03-04 22:42:00,64.0,60.0,-100.00,South,191,5.0,12.0,86,0.00,,,0.00,0.000000,,2013-03-05 05:42:00,
2013-03-04 22:52:00,64.0,60.0,-100.00,South,191,5.0,12.0,86,0.00,,,0.00,0.000000,,2013-03-05 05:52:00,
2013-03-04 23:22:00,63.0,59.0,-100.00,SSE,155,3.0,6.0,88,0.00,,,0.00,0.000000,,2013-03-05 06:22:00,
2013-03-04 23:32:00,63.0,59.0,-100.00,SSE,155,3.0,6.0,88,0.00,,,0.00,0.000000,,2013-03-05 06:32:00,
2013-03-04 23:42:00,63.0,59.0,-100.00,SSE,155,3.0,6.0,88,0.00,,,0.00,0.000000,,2013-03-05 06:42:00,
2013-03-04 23:52:00,63.0,59.0,-100.00,SSE,155,3.0,6.0,88,0.00,,,0.00,0.000000,,2013-03-05 06:52:00,